sensor_id;sensor_type;location;lat;lon;timestamp;temperature;humidity
13742;DHT22;8461;52.356;10.704;2022-07-23T00:00:32;15.10;99.90
13742;DHT22;8461;52.356;10.704;2022-07-23T00:02:58;15.20;99.90
13742;DHT22;8461;52.356;10.704;2022-07-23T00:05:23;15.20;99.90
13742;DHT22;8461;52.356;10.704;2022-07-23T00:07:49;15.20;99.90
13742;DHT22;8461;52.356;10.704;2022-07-23T00:10:15;15.10;99.90
13742;DHT22;8461;52.356;10.704;2022-07-23T00:12:41;15.10;99.90
13742;DHT22;8461;52.356;10.704;2022-07-23T00:15:08;15.10;99.90
13742;DHT22;8461;52.356;10.704;2022-07-23T00:17:33;15.10;99.90
13742;DHT22;8461;52.356;10.704;2022-07-23T00:19:59;15.00;99.90
13742;DHT22;8461;52.356;10.704;2022-07-23T00:22:25;15.00;99.90
13742;DHT22;8461;52.356;10.704;2022-07-23T00:24:50;14.90;99.90
13742;DHT22;8461;52.356;10.704;2022-07-23T00:27:16;14.90;99.90
13742;DHT22;8461;52.356;10.704;2022-07-23T00:29:41;14.90;99.90
13742;DHT22;8461;52.356;10.704;2022-07-23T00:32:07;14.80;99.90
13742;DHT22;8461;52.356;10.704;2022-07-23T00:34:33;14.80;99.90
13742;DHT22;8461;52.356;10.704;2022-07-23T00:36:58;14.70;99.90
13742;DHT22;8461;52.356;10.704;2022-07-23T00:39:24;14.70;99.90
13742;DHT22;8461;52.356;10.704;2022-07-23T00:41:50;14.70;99.90
13742;DHT22;8461;52.356;10.704;2022-07-23T00:44:24;14.70;99.90
13742;DHT22;8461;52.356;10.704;2022-07-23T00:46:57;14.70;99.90
13742;DHT22;8461;52.356;10.704;2022-07-23T00:49:26;14.70;99.90
13742;DHT22;8461;52.356;10.704;2022-07-23T00:51:52;14.70;99.90
13742;DHT22;8461;52.356;10.704;2022-07-23T00:54:19;14.60;99.90
13742;DHT22;8461;52.356;10.704;2022-07-23T00:56:45;14.60;99.90
13742;DHT22;8461;52.356;10.704;2022-07-23T00:59:12;14.60;99.90
13742;DHT22;8461;52.356;10.704;2022-07-23T01:01:38;14.60;99.90
13742;DHT22;8461;52.356;10.704;2022-07-23T01:04:04;14.70;99.90
13742;DHT22;8461;52.356;10.704;2022-07-23T01:06:34;14.70;99.90
13742;DHT22;8461;52.356;10.704;2022-07-23T01:09:00;14.70;99.90
13742;DHT22;8461;52.356;10.704;2022-07-23T01:11:26;14.80;99.90
13742;DHT22;8461;52.356;10.704;2022-07-23T01:13:51;14.70;99.90
13742;DHT22;8461;52.356;10.704;2022-07-23T01:16:17;14.70;99.90
13742;DHT22;8461;52.356;10.704;2022-07-23T01:18:42;14.70;99.90
13742;DHT22;8461;52.356;10.704;2022-07-23T01:21:11;14.70;99.90
13742;DHT22;8461;52.356;10.704;2022-07-23T01:23:38;14.70;99.90
13742;DHT22;8461;52.356;10.704;2022-07-23T01:26:04;14.70;99.90
13742;DHT22;8461;52.356;10.704;2022-07-23T01:28:30;14.70;99.90
13742;DHT22;8461;52.356;10.704;2022-07-23T01:30:55;14.70;99.90
13742;DHT22;8461;52.356;10.704;2022-07-23T01:33:21;14.70;99.90
13742;DHT22;8461;52.356;10.704;2022-07-23T01:35:46;14.80;99.90
13742;DHT22;8461;52.356;10.704;2022-07-23T01:38:12;14.80;99.90
13742;DHT22;8461;52.356;10.704;2022-07-23T01:40:37;14.70;99.90
13742;DHT22;8461;52.356;10.704;2022-07-23T01:43:03;14.70;99.90
13742;DHT22;8461;52.356;10.704;2022-07-23T01:45:28;14.70;99.90
13742;DHT22;8461;52.356;10.704;2022-07-23T01:47:54;14.70;99.90
13742;DHT22;8461;52.356;10.704;2022-07-23T01:50:20;14.60;99.90
13742;DHT22;8461;52.356;10.704;2022-07-23T01:52:45;14.70;99.90
13742;DHT22;8461;52.356;10.704;2022-07-23T01:55:11;14.70;99.90
13742;DHT22;8461;52.356;10.704;2022-07-23T01:57:36;14.70;99.90
13742;DHT22;8461;52.356;10.704;2022-07-23T02:00:02;14.70;99.90
13742;DHT22;8461;52.356;10.704;2022-07-23T02:02:28;14.70;99.90
13742;DHT22;8461;52.356;10.704;2022-07-23T02:04:54;14.60;99.90
13742;DHT22;8461;52.356;10.704;2022-07-23T02:07:19;14.60;99.90
13742;DHT22;8461;52.356;10.704;2022-07-23T02:09:45;14.60;99.90
13742;DHT22;8461;52.356;10.704;2022-07-23T02:12:10;14.60;99.90
13742;DHT22;8461;52.356;10.704;2022-07-23T02:14:36;14.70;99.90
13742;DHT22;8461;52.356;10.704;2022-07-23T02:17:01;14.70;99.90
13742;DHT22;8461;52.356;10.704;2022-07-23T02:19:27;14.70;99.90
13742;DHT22;8461;52.356;10.704;2022-07-23T02:21:53;14.70;99.90
13742;DHT22;8461;52.356;10.704;2022-07-23T02:24:19;14.80;99.90
13742;DHT22;8461;52.356;10.704;2022-07-23T02:26:45;14.80;99.90
13742;DHT22;8461;52.356;10.704;2022-07-23T02:29:11;14.70;99.90
13742;DHT22;8461;52.356;10.704;2022-07-23T02:31:36;14.60;99.90
13742;DHT22;8461;52.356;10.704;2022-07-23T02:34:02;14.60;99.90
13742;DHT22;8461;52.356;10.704;2022-07-23T02:36:28;14.60;99.90
13742;DHT22;8461;52.356;10.704;2022-07-23T02:38:54;14.60;99.90
13742;DHT22;8461;52.356;10.704;2022-07-23T02:41:19;14.50;99.90
13742;DHT22;8461;52.356;10.704;2022-07-23T02:43:45;14.50;99.90
13742;DHT22;8461;52.356;10.704;2022-07-23T02:46:10;14.50;99.90
13742;DHT22;8461;52.356;10.704;2022-07-23T02:48:36;14.50;99.90
13742;DHT22;8461;52.356;10.704;2022-07-23T02:51:02;14.50;99.90
13742;DHT22;8461;52.356;10.704;2022-07-23T02:53:27;14.50;99.90
13742;DHT22;8461;52.356;10.704;2022-07-23T02:55:53;14.40;99.90
13742;DHT22;8461;52.356;10.704;2022-07-23T02:58:18;14.40;99.90
13742;DHT22;8461;52.356;10.704;2022-07-23T03:00:44;14.40;99.90
13742;DHT22;8461;52.356;10.704;2022-07-23T03:03:09;14.40;99.90
13742;DHT22;8461;52.356;10.704;2022-07-23T03:05:35;14.40;99.90
13742;DHT22;8461;52.356;10.704;2022-07-23T03:08:01;14.30;99.90
13742;DHT22;8461;52.356;10.704;2022-07-23T03:10:26;14.30;99.90
13742;DHT22;8461;52.356;10.704;2022-07-23T03:12:52;14.30;99.90
13742;DHT22;8461;52.356;10.704;2022-07-23T03:15:18;14.20;99.90
13742;DHT22;8461;52.356;10.704;2022-07-23T03:17:43;14.20;99.90
13742;DHT22;8461;52.356;10.704;2022-07-23T03:20:09;14.20;99.90
13742;DHT22;8461;52.356;10.704;2022-07-23T03:22:35;14.20;99.90
13742;DHT22;8461;52.356;10.704;2022-07-23T03:25:01;14.10;99.90
13742;DHT22;8461;52.356;10.704;2022-07-23T03:27:28;14.20;99.90
13742;DHT22;8461;52.356;10.704;2022-07-23T03:29:56;14.20;99.90
13742;DHT22;8461;52.356;10.704;2022-07-23T03:32:23;14.20;99.90
13742;DHT22;8461;52.356;10.704;2022-07-23T03:34:49;14.20;99.90
13742;DHT22;8461;52.356;10.704;2022-07-23T03:37:15;14.20;99.90
13742;DHT22;8461;52.356;10.704;2022-07-23T03:39:41;14.20;99.90
13742;DHT22;8461;52.356;10.704;2022-07-23T03:42:07;14.10;99.90
13742;DHT22;8461;52.356;10.704;2022-07-23T03:44:33;14.10;99.90
13742;DHT22;8461;52.356;10.704;2022-07-23T03:46:58;14.20;99.90
13742;DHT22;8461;52.356;10.704;2022-07-23T03:49:24;14.30;99.90
13742;DHT22;8461;52.356;10.704;2022-07-23T03:51:50;14.30;99.90
13742;DHT22;8461;52.356;10.704;2022-07-23T03:54:16;14.40;99.90
13742;DHT22;8461;52.356;10.704;2022-07-23T03:56:41;14.40;99.90
13742;DHT22;8461;52.356;10.704;2022-07-23T03:59:08;14.50;99.90
13742;DHT22;8461;52.356;10.704;2022-07-23T04:01:34;14.50;99.90
13742;DHT22;8461;52.356;10.704;2022-07-23T04:04:00;14.50;99.90
13742;DHT22;8461;52.356;10.704;2022-07-23T04:06:26;14.60;99.90
13742;DHT22;8461;52.356;10.704;2022-07-23T04:08:51;14.60;99.90
13742;DHT22;8461;52.356;10.704;2022-07-23T04:11:17;14.60;99.90
13742;DHT22;8461;52.356;10.704;2022-07-23T04:13:42;14.60;99.90
13742;DHT22;8461;52.356;10.704;2022-07-23T04:16:08;14.70;99.90
13742;DHT22;8461;52.356;10.704;2022-07-23T04:18:34;14.70;99.90
13742;DHT22;8461;52.356;10.704;2022-07-23T04:20:59;14.70;99.90
13742;DHT22;8461;52.356;10.704;2022-07-23T04:23:25;14.70;99.90
13742;DHT22;8461;52.356;10.704;2022-07-23T04:25:50;14.70;99.90
13742;DHT22;8461;52.356;10.704;2022-07-23T04:28:16;14.80;99.90
13742;DHT22;8461;52.356;10.704;2022-07-23T04:30:41;14.80;99.90
13742;DHT22;8461;52.356;10.704;2022-07-23T04:33:07;14.90;99.90
13742;DHT22;8461;52.356;10.704;2022-07-23T04:35:36;14.90;99.90
13742;DHT22;8461;52.356;10.704;2022-07-23T04:38:02;15.00;99.90
13742;DHT22;8461;52.356;10.704;2022-07-23T04:40:28;15.00;99.90
13742;DHT22;8461;52.356;10.704;2022-07-23T04:42:53;15.00;99.90
13742;DHT22;8461;52.356;10.704;2022-07-23T04:45:19;15.00;99.90
13742;DHT22;8461;52.356;10.704;2022-07-23T04:47:45;15.00;99.90
13742;DHT22;8461;52.356;10.704;2022-07-23T04:50:11;15.00;99.90
13742;DHT22;8461;52.356;10.704;2022-07-23T04:52:37;15.00;99.90
13742;DHT22;8461;52.356;10.704;2022-07-23T04:55:03;15.00;99.90
13742;DHT22;8461;52.356;10.704;2022-07-23T04:57:29;15.00;99.90
13742;DHT22;8461;52.356;10.704;2022-07-23T04:59:54;15.00;99.90
13742;DHT22;8461;52.356;10.704;2022-07-23T05:02:20;15.00;99.90
13742;DHT22;8461;52.356;10.704;2022-07-23T05:04:45;15.00;99.90
13742;DHT22;8461;52.356;10.704;2022-07-23T05:07:11;15.10;99.90
13742;DHT22;8461;52.356;10.704;2022-07-23T05:09:37;15.10;99.90
13742;DHT22;8461;52.356;10.704;2022-07-23T05:12:03;15.20;99.90
13742;DHT22;8461;52.356;10.704;2022-07-23T05:14:28;15.30;99.90
13742;DHT22;8461;52.356;10.704;2022-07-23T05:16:54;15.30;99.90
13742;DHT22;8461;52.356;10.704;2022-07-23T05:19:20;15.40;99.90
13742;DHT22;8461;52.356;10.704;2022-07-23T05:21:46;15.40;99.90
13742;DHT22;8461;52.356;10.704;2022-07-23T05:24:11;15.30;99.90
13742;DHT22;8461;52.356;10.704;2022-07-23T05:26:37;15.40;99.90
13742;DHT22;8461;52.356;10.704;2022-07-23T05:29:02;15.50;99.90
13742;DHT22;8461;52.356;10.704;2022-07-23T05:31:28;15.50;99.90
13742;DHT22;8461;52.356;10.704;2022-07-23T05:33:53;15.60;99.90
13742;DHT22;8461;52.356;10.704;2022-07-23T05:36:19;15.70;99.90
13742;DHT22;8461;52.356;10.704;2022-07-23T05:38:44;15.70;99.90
13742;DHT22;8461;52.356;10.704;2022-07-23T05:41:10;15.70;99.90
13742;DHT22;8461;52.356;10.704;2022-07-23T05:43:35;15.50;99.90
13742;DHT22;8461;52.356;10.704;2022-07-23T05:46:01;15.60;99.90
13742;DHT22;8461;52.356;10.704;2022-07-23T05:48:27;15.70;99.90
13742;DHT22;8461;52.356;10.704;2022-07-23T05:50:52;15.70;99.90
13742;DHT22;8461;52.356;10.704;2022-07-23T05:53:18;15.80;99.90
13742;DHT22;8461;52.356;10.704;2022-07-23T05:55:43;15.80;99.90
13742;DHT22;8461;52.356;10.704;2022-07-23T05:58:09;15.70;99.90
13742;DHT22;8461;52.356;10.704;2022-07-23T06:00:34;15.90;99.90
13742;DHT22;8461;52.356;10.704;2022-07-23T06:03:00;15.70;99.90
13742;DHT22;8461;52.356;10.704;2022-07-23T06:05:26;15.80;99.90
13742;DHT22;8461;52.356;10.704;2022-07-23T06:07:52;15.80;99.90
13742;DHT22;8461;52.356;10.704;2022-07-23T06:10:18;15.90;99.90
13742;DHT22;8461;52.356;10.704;2022-07-23T06:12:44;16.00;99.90
13742;DHT22;8461;52.356;10.704;2022-07-23T06:15:10;16.20;99.90
13742;DHT22;8461;52.356;10.704;2022-07-23T06:17:37;16.30;99.90
13742;DHT22;8461;52.356;10.704;2022-07-23T06:20:05;16.30;99.90
13742;DHT22;8461;52.356;10.704;2022-07-23T06:22:31;16.50;99.90
13742;DHT22;8461;52.356;10.704;2022-07-23T06:24:57;16.70;99.90
13742;DHT22;8461;52.356;10.704;2022-07-23T06:27:22;16.60;99.90
13742;DHT22;8461;52.356;10.704;2022-07-23T06:29:48;16.80;99.90
13742;DHT22;8461;52.356;10.704;2022-07-23T06:32:13;16.90;99.90
13742;DHT22;8461;52.356;10.704;2022-07-23T06:34:39;17.00;99.90
13742;DHT22;8461;52.356;10.704;2022-07-23T06:37:04;17.00;99.90
13742;DHT22;8461;52.356;10.704;2022-07-23T06:39:30;17.00;99.90
13742;DHT22;8461;52.356;10.704;2022-07-23T06:41:56;17.00;99.90
13742;DHT22;8461;52.356;10.704;2022-07-23T06:44:21;17.10;99.90
13742;DHT22;8461;52.356;10.704;2022-07-23T06:46:47;17.10;99.90
13742;DHT22;8461;52.356;10.704;2022-07-23T06:49:12;17.20;99.90
13742;DHT22;8461;52.356;10.704;2022-07-23T06:51:38;17.20;99.90
13742;DHT22;8461;52.356;10.704;2022-07-23T06:54:04;17.20;99.90
13742;DHT22;8461;52.356;10.704;2022-07-23T06:56:29;17.20;99.90
13742;DHT22;8461;52.356;10.704;2022-07-23T06:58:55;17.30;99.90
13742;DHT22;8461;52.356;10.704;2022-07-23T07:01:20;17.30;99.90
13742;DHT22;8461;52.356;10.704;2022-07-23T07:03:46;17.30;99.90
13742;DHT22;8461;52.356;10.704;2022-07-23T07:06:13;17.30;99.90
13742;DHT22;8461;52.356;10.704;2022-07-23T07:08:39;17.40;99.90
13742;DHT22;8461;52.356;10.704;2022-07-23T07:11:05;17.40;99.90
13742;DHT22;8461;52.356;10.704;2022-07-23T07:13:30;17.40;99.90
13742;DHT22;8461;52.356;10.704;2022-07-23T07:15:56;17.50;99.90
13742;DHT22;8461;52.356;10.704;2022-07-23T07:18:21;17.50;99.90
13742;DHT22;8461;52.356;10.704;2022-07-23T07:20:47;17.60;99.90
13742;DHT22;8461;52.356;10.704;2022-07-23T07:23:13;17.60;99.90
13742;DHT22;8461;52.356;10.704;2022-07-23T07:25:38;17.70;99.90
13742;DHT22;8461;52.356;10.704;2022-07-23T07:28:04;17.70;99.90
13742;DHT22;8461;52.356;10.704;2022-07-23T07:30:30;17.70;99.90
13742;DHT22;8461;52.356;10.704;2022-07-23T07:32:55;17.80;99.90
13742;DHT22;8461;52.356;10.704;2022-07-23T07:35:21;17.90;99.90
13742;DHT22;8461;52.356;10.704;2022-07-23T07:37:46;18.00;99.90
13742;DHT22;8461;52.356;10.704;2022-07-23T07:40:12;17.90;99.90
13742;DHT22;8461;52.356;10.704;2022-07-23T07:42:47;18.10;99.90
13742;DHT22;8461;52.356;10.704;2022-07-23T07:45:13;18.20;99.90
13742;DHT22;8461;52.356;10.704;2022-07-23T07:47:38;18.20;99.90
13742;DHT22;8461;52.356;10.704;2022-07-23T07:50:04;18.30;99.90
13742;DHT22;8461;52.356;10.704;2022-07-23T07:52:30;18.30;99.90
13742;DHT22;8461;52.356;10.704;2022-07-23T07:54:56;18.40;99.90
13742;DHT22;8461;52.356;10.704;2022-07-23T07:57:21;18.50;99.90
13742;DHT22;8461;52.356;10.704;2022-07-23T07:59:47;18.60;99.90
13742;DHT22;8461;52.356;10.704;2022-07-23T08:02:12;18.80;99.90
13742;DHT22;8461;52.356;10.704;2022-07-23T08:04:38;18.80;99.90
13742;DHT22;8461;52.356;10.704;2022-07-23T08:07:03;18.60;99.90
13742;DHT22;8461;52.356;10.704;2022-07-23T08:09:29;18.80;99.90
13742;DHT22;8461;52.356;10.704;2022-07-23T08:11:54;18.70;99.90
13742;DHT22;8461;52.356;10.704;2022-07-23T08:14:20;18.70;99.90
13742;DHT22;8461;52.356;10.704;2022-07-23T08:16:46;18.80;99.90
13742;DHT22;8461;52.356;10.704;2022-07-23T08:19:12;19.20;99.90
13742;DHT22;8461;52.356;10.704;2022-07-23T08:21:37;19.20;99.90
13742;DHT22;8461;52.356;10.704;2022-07-23T08:24:03;19.30;99.90
13742;DHT22;8461;52.356;10.704;2022-07-23T08:26:28;19.30;99.90
13742;DHT22;8461;52.356;10.704;2022-07-23T08:28:54;19.20;99.90
13742;DHT22;8461;52.356;10.704;2022-07-23T08:31:19;19.20;99.90
13742;DHT22;8461;52.356;10.704;2022-07-23T08:33:45;19.50;99.90
13742;DHT22;8461;52.356;10.704;2022-07-23T08:36:11;19.70;99.90
13742;DHT22;8461;52.356;10.704;2022-07-23T08:38:36;19.80;99.90
13742;DHT22;8461;52.356;10.704;2022-07-23T08:41:02;19.90;99.90
13742;DHT22;8461;52.356;10.704;2022-07-23T08:43:31;19.80;99.90
13742;DHT22;8461;52.356;10.704;2022-07-23T08:45:59;19.70;99.90
13742;DHT22;8461;52.356;10.704;2022-07-23T08:48:26;19.60;99.90
13742;DHT22;8461;52.356;10.704;2022-07-23T08:50:55;19.60;99.90
13742;DHT22;8461;52.356;10.704;2022-07-23T08:53:22;19.60;99.90
13742;DHT22;8461;52.356;10.704;2022-07-23T08:55:51;19.70;99.90
13742;DHT22;8461;52.356;10.704;2022-07-23T08:58:17;19.90;99.90
13742;DHT22;8461;52.356;10.704;2022-07-23T09:00:44;20.10;99.90
13742;DHT22;8461;52.356;10.704;2022-07-23T09:03:21;20.10;99.90
13742;DHT22;8461;52.356;10.704;2022-07-23T09:05:53;20.10;99.90
13742;DHT22;8461;52.356;10.704;2022-07-23T09:08:20;19.90;99.90
13742;DHT22;8461;52.356;10.704;2022-07-23T09:10:57;19.80;99.90
13742;DHT22;8461;52.356;10.704;2022-07-23T09:13:23;19.80;99.90
13742;DHT22;8461;52.356;10.704;2022-07-23T09:15:50;19.70;99.90
13742;DHT22;8461;52.356;10.704;2022-07-23T09:18:16;19.70;99.90
13742;DHT22;8461;52.356;10.704;2022-07-23T09:20:42;19.90;99.90
13742;DHT22;8461;52.356;10.704;2022-07-23T09:23:08;20.00;99.90
13742;DHT22;8461;52.356;10.704;2022-07-23T09:25:33;20.20;99.90
13742;DHT22;8461;52.356;10.704;2022-07-23T09:27:59;20.40;99.90
13742;DHT22;8461;52.356;10.704;2022-07-23T09:30:30;20.30;99.90
13742;DHT22;8461;52.356;10.704;2022-07-23T09:35:53;20.40;99.90
13742;DHT22;8461;52.356;10.704;2022-07-23T09:38:21;20.10;99.90
13742;DHT22;8461;52.356;10.704;2022-07-23T09:41:10;20.20;99.90
13742;DHT22;8461;52.356;10.704;2022-07-23T09:43:37;20.40;99.90
13742;DHT22;8461;52.356;10.704;2022-07-23T09:46:24;20.80;99.90
13742;DHT22;8461;52.356;10.704;2022-07-23T09:48:54;20.60;99.90
13742;DHT22;8461;52.356;10.704;2022-07-23T09:51:22;20.80;99.90
13742;DHT22;8461;52.356;10.704;2022-07-23T09:53:52;20.80;99.90
13742;DHT22;8461;52.356;10.704;2022-07-23T09:56:19;21.00;99.90
13742;DHT22;8461;52.356;10.704;2022-07-23T09:58:46;21.10;99.90
13742;DHT22;8461;52.356;10.704;2022-07-23T10:01:15;21.20;99.90
13742;DHT22;8461;52.356;10.704;2022-07-23T10:03:41;21.10;99.90
13742;DHT22;8461;52.356;10.704;2022-07-23T10:06:12;21.20;99.90
13742;DHT22;8461;52.356;10.704;2022-07-23T10:08:40;21.00;99.90
13742;DHT22;8461;52.356;10.704;2022-07-23T10:11:07;21.20;99.90
13742;DHT22;8461;52.356;10.704;2022-07-23T10:13:35;21.30;99.90
13742;DHT22;8461;52.356;10.704;2022-07-23T10:16:20;21.40;99.90
13742;DHT22;8461;52.356;10.704;2022-07-23T10:18:46;21.00;99.90
13742;DHT22;8461;52.356;10.704;2022-07-23T10:21:18;20.60;99.90
13742;DHT22;8461;52.356;10.704;2022-07-23T10:23:58;20.60;99.90
13742;DHT22;8461;52.356;10.704;2022-07-23T10:27:04;20.80;99.90
13742;DHT22;8461;52.356;10.704;2022-07-23T10:30:07;21.00;99.90
13742;DHT22;8461;52.356;10.704;2022-07-23T10:35:31;21.20;99.90
13742;DHT22;8461;52.356;10.704;2022-07-23T10:38:30;21.30;99.90
13742;DHT22;8461;52.356;10.704;2022-07-23T10:41:03;21.20;99.90
13742;DHT22;8461;52.356;10.704;2022-07-23T10:43:30;21.10;99.90
13742;DHT22;8461;52.356;10.704;2022-07-23T10:46:21;21.00;99.90
13742;DHT22;8461;52.356;10.704;2022-07-23T10:48:42;21.30;99.90
13742;DHT22;8461;52.356;10.704;2022-07-23T10:51:15;21.60;99.90
13742;DHT22;8461;52.356;10.704;2022-07-23T10:53:53;21.80;99.90
13742;DHT22;8461;52.356;10.704;2022-07-23T10:56:48;22.00;99.90
13742;DHT22;8461;52.356;10.704;2022-07-23T10:59:14;22.00;99.90
13742;DHT22;8461;52.356;10.704;2022-07-23T11:01:40;21.90;99.90
13742;DHT22;8461;52.356;10.704;2022-07-23T11:04:06;22.00;99.90
13742;DHT22;8461;52.356;10.704;2022-07-23T11:09:31;22.40;99.60
13742;DHT22;8461;52.356;10.704;2022-07-23T11:12:32;22.10;99.60
13742;DHT22;8461;52.356;10.704;2022-07-23T11:14:58;22.30;99.70
13742;DHT22;8461;52.356;10.704;2022-07-23T11:17:24;22.20;99.10
13742;DHT22;8461;52.356;10.704;2022-07-23T11:27:47;21.80;99.50
13742;DHT22;8461;52.356;10.704;2022-07-23T11:35:44;21.90;99.00
13742;DHT22;8461;52.356;10.704;2022-07-23T11:38:15;21.90;99.00
13742;DHT22;8461;52.356;10.704;2022-07-23T11:40:43;22.30;99.20
13742;DHT22;8461;52.356;10.704;2022-07-23T11:43:10;22.20;99.10
13742;DHT22;8461;52.356;10.704;2022-07-23T11:45:37;22.30;98.80
13742;DHT22;8461;52.356;10.704;2022-07-23T11:48:05;22.30;99.00
13742;DHT22;8461;52.356;10.704;2022-07-23T11:50:31;22.50;99.30
13742;DHT22;8461;52.356;10.704;2022-07-23T11:52:57;22.50;98.60
13742;DHT22;8461;52.356;10.704;2022-07-23T11:55:23;22.30;98.60
13742;DHT22;8461;52.356;10.704;2022-07-23T11:57:51;22.40;99.30
13742;DHT22;8461;52.356;10.704;2022-07-23T12:00:20;22.80;99.60
13742;DHT22;8461;52.356;10.704;2022-07-23T12:02:52;23.00;98.20
13742;DHT22;8461;52.356;10.704;2022-07-23T12:05:20;22.90;97.40
13742;DHT22;8461;52.356;10.704;2022-07-23T12:07:50;22.70;97.30
13742;DHT22;8461;52.356;10.704;2022-07-23T12:10:23;22.60;97.20
13742;DHT22;8461;52.356;10.704;2022-07-23T12:12:56;22.30;97.90
13742;DHT22;8461;52.356;10.704;2022-07-23T12:17:51;22.90;97.60
13742;DHT22;8461;52.356;10.704;2022-07-23T12:20:22;22.90;97.30
13742;DHT22;8461;52.356;10.704;2022-07-23T12:22:50;23.00;97.10
13742;DHT22;8461;52.356;10.704;2022-07-23T12:25:18;23.30;97.10
13742;DHT22;8461;52.356;10.704;2022-07-23T12:27:45;23.50;96.90
13742;DHT22;8461;52.356;10.704;2022-07-23T12:30:41;23.10;96.30
13742;DHT22;8461;52.356;10.704;2022-07-23T12:33:08;23.50;95.90
13742;DHT22;8461;52.356;10.704;2022-07-23T12:35:40;23.70;95.70
13742;DHT22;8461;52.356;10.704;2022-07-23T12:38:15;23.80;95.50
13742;DHT22;8461;52.356;10.704;2022-07-23T12:40:49;23.90;95.50
13742;DHT22;8461;52.356;10.704;2022-07-23T12:43:27;23.80;94.80
13742;DHT22;8461;52.356;10.704;2022-07-23T12:48:39;23.40;95.30
13742;DHT22;8461;52.356;10.704;2022-07-23T12:53:41;23.90;95.20
13742;DHT22;8461;52.356;10.704;2022-07-23T12:56:18;24.00;94.70
13742;DHT22;8461;52.356;10.704;2022-07-23T13:03:55;24.30;94.00
13742;DHT22;8461;52.356;10.704;2022-07-23T13:06:21;24.50;93.90
13742;DHT22;8461;52.356;10.704;2022-07-23T13:08:46;24.70;94.40
13742;DHT22;8461;52.356;10.704;2022-07-23T13:11:12;24.60;93.40
13742;DHT22;8461;52.356;10.704;2022-07-23T13:13:39;24.40;93.20
13742;DHT22;8461;52.356;10.704;2022-07-23T13:16:04;24.50;93.60
13742;DHT22;8461;52.356;10.704;2022-07-23T13:18:30;24.40;94.30
13742;DHT22;8461;52.356;10.704;2022-07-23T13:20:56;24.80;92.80
13742;DHT22;8461;52.356;10.704;2022-07-23T13:23:22;25.00;92.20
13742;DHT22;8461;52.356;10.704;2022-07-23T13:25:48;24.90;92.20
13742;DHT22;8461;52.356;10.704;2022-07-23T13:28:16;24.70;93.10
13742;DHT22;8461;52.356;10.704;2022-07-23T13:30:42;24.70;92.80
13742;DHT22;8461;52.356;10.704;2022-07-23T13:33:08;24.30;92.70
13742;DHT22;8461;52.356;10.704;2022-07-23T13:35:34;24.40;93.20
13742;DHT22;8461;52.356;10.704;2022-07-23T13:38:01;24.40;92.30
13742;DHT22;8461;52.356;10.704;2022-07-23T13:40:27;24.70;92.50
13742;DHT22;8461;52.356;10.704;2022-07-23T13:42:52;24.90;92.20
13742;DHT22;8461;52.356;10.704;2022-07-23T13:45:18;24.70;91.90
13742;DHT22;8461;52.356;10.704;2022-07-23T13:47:44;24.20;92.30
13742;DHT22;8461;52.356;10.704;2022-07-23T13:50:09;24.00;92.70
13742;DHT22;8461;52.356;10.704;2022-07-23T13:52:35;24.00;91.70
13742;DHT22;8461;52.356;10.704;2022-07-23T13:55:02;24.10;92.30
13742;DHT22;8461;52.356;10.704;2022-07-23T13:57:29;24.10;91.90
13742;DHT22;8461;52.356;10.704;2022-07-23T13:59:55;24.10;91.50
13742;DHT22;8461;52.356;10.704;2022-07-23T14:02:20;23.80;92.00
13742;DHT22;8461;52.356;10.704;2022-07-23T14:04:46;23.80;92.20
13742;DHT22;8461;52.356;10.704;2022-07-23T14:07:11;23.80;92.10
13742;DHT22;8461;52.356;10.704;2022-07-23T14:09:37;23.70;92.10
13742;DHT22;8461;52.356;10.704;2022-07-23T14:12:03;23.80;92.30
13742;DHT22;8461;52.356;10.704;2022-07-23T14:14:29;24.10;92.10
13742;DHT22;8461;52.356;10.704;2022-07-23T14:16:55;23.80;91.70
13742;DHT22;8461;52.356;10.704;2022-07-23T14:19:21;24.00;92.50
13742;DHT22;8461;52.356;10.704;2022-07-23T14:21:47;24.10;91.40
13742;DHT22;8461;52.356;10.704;2022-07-23T14:24:14;24.00;91.10
13742;DHT22;8461;52.356;10.704;2022-07-23T14:26:40;24.10;91.50
13742;DHT22;8461;52.356;10.704;2022-07-23T14:29:06;24.10;91.10
13742;DHT22;8461;52.356;10.704;2022-07-23T14:31:31;24.10;91.10
13742;DHT22;8461;52.356;10.704;2022-07-23T14:33:57;24.20;91.70
13742;DHT22;8461;52.356;10.704;2022-07-23T14:36:22;24.50;91.30
13742;DHT22;8461;52.356;10.704;2022-07-23T14:38:48;24.30;90.60
13742;DHT22;8461;52.356;10.704;2022-07-23T14:41:13;24.30;90.90
13742;DHT22;8461;52.356;10.704;2022-07-23T14:43:39;24.20;91.50
13742;DHT22;8461;52.356;10.704;2022-07-23T14:46:05;24.50;91.40
13742;DHT22;8461;52.356;10.704;2022-07-23T14:48:30;24.50;90.50
13742;DHT22;8461;52.356;10.704;2022-07-23T14:50:56;24.50;90.00
13742;DHT22;8461;52.356;10.704;2022-07-23T14:53:22;24.30;89.40
13742;DHT22;8461;52.356;10.704;2022-07-23T14:55:47;24.30;89.70
13742;DHT22;8461;52.356;10.704;2022-07-23T14:58:13;24.40;89.00
13742;DHT22;8461;52.356;10.704;2022-07-23T15:00:38;24.30;89.70
13742;DHT22;8461;52.356;10.704;2022-07-23T15:03:04;24.30;89.60
13742;DHT22;8461;52.356;10.704;2022-07-23T15:05:29;24.10;89.20
13742;DHT22;8461;52.356;10.704;2022-07-23T15:07:55;24.00;88.90
13742;DHT22;8461;52.356;10.704;2022-07-23T15:10:21;24.10;88.50
13742;DHT22;8461;52.356;10.704;2022-07-23T15:12:47;24.10;87.80
13742;DHT22;8461;52.356;10.704;2022-07-23T15:15:13;24.20;88.90
13742;DHT22;8461;52.356;10.704;2022-07-23T15:17:39;24.10;88.90
13742;DHT22;8461;52.356;10.704;2022-07-23T15:20:05;24.30;89.50
13742;DHT22;8461;52.356;10.704;2022-07-23T15:22:30;23.90;88.30
13742;DHT22;8461;52.356;10.704;2022-07-23T15:24:56;24.10;87.60
13742;DHT22;8461;52.356;10.704;2022-07-23T15:27:22;24.10;88.00
13742;DHT22;8461;52.356;10.704;2022-07-23T15:29:47;24.10;88.30
13742;DHT22;8461;52.356;10.704;2022-07-23T15:32:13;24.20;89.00
13742;DHT22;8461;52.356;10.704;2022-07-23T15:34:38;24.20;89.20
13742;DHT22;8461;52.356;10.704;2022-07-23T15:37:04;24.10;90.00
13742;DHT22;8461;52.356;10.704;2022-07-23T15:39:33;24.10;90.10
13742;DHT22;8461;52.356;10.704;2022-07-23T15:42:00;24.10;90.00
13742;DHT22;8461;52.356;10.704;2022-07-23T15:44:25;24.20;89.70
13742;DHT22;8461;52.356;10.704;2022-07-23T15:46:51;24.10;89.70
13742;DHT22;8461;52.356;10.704;2022-07-23T15:49:17;23.90;90.10
13742;DHT22;8461;52.356;10.704;2022-07-23T15:51:42;23.90;90.60
13742;DHT22;8461;52.356;10.704;2022-07-23T15:54:08;23.90;90.50
13742;DHT22;8461;52.356;10.704;2022-07-23T15:56:34;24.00;90.20
13742;DHT22;8461;52.356;10.704;2022-07-23T15:59:00;24.00;90.10
13742;DHT22;8461;52.356;10.704;2022-07-23T16:01:25;24.00;90.10
13742;DHT22;8461;52.356;10.704;2022-07-23T16:03:54;23.90;90.20